createdAt,value
2018-03-16T00:01:47.240Z,3.80
2018-03-16T00:04:14.715Z,3.40
2018-03-16T00:06:42.211Z,4.80
2018-03-16T00:09:10.475Z,5.07
2018-03-16T00:11:38.730Z,3.83
2018-03-16T00:14:06.209Z,4.60
2018-03-16T00:16:33.697Z,2.93
2018-03-16T00:19:01.194Z,3.57
2018-03-16T00:21:28.679Z,4.00
2018-03-16T00:23:56.167Z,4.37
2018-03-16T00:26:23.652Z,3.47
2018-03-16T00:28:51.890Z,4.30
2018-03-16T00:31:20.142Z,2.90
2018-03-16T00:33:48.410Z,3.80
2018-03-16T00:36:15.891Z,3.10
2018-03-16T00:38:44.134Z,3.67
2018-03-16T00:41:11.631Z,3.10
2018-03-16T00:43:39.937Z,2.00
2018-03-16T00:46:07.447Z,2.40
2018-03-16T00:48:34.927Z,1.93
2018-03-16T00:51:03.193Z,2.57
2018-03-16T00:53:31.435Z,3.60
2018-03-16T00:55:58.960Z,3.20
2018-03-16T00:58:26.454Z,2.20
2018-03-16T01:00:53.928Z,2.90
2018-03-16T01:03:21.418Z,3.10
2018-03-16T01:05:49.664Z,2.30
2018-03-16T01:08:17.152Z,2.30
2018-03-16T01:10:44.648Z,2.50
2018-03-16T01:13:12.144Z,2.10
2018-03-16T01:15:40.404Z,1.80
2018-03-16T01:18:07.879Z,1.67
2018-03-16T01:20:41.071Z,1.60
2018-03-16T01:23:08.976Z,1.60
2018-03-16T01:25:36.461Z,1.20
2018-03-16T01:28:03.944Z,1.30
2018-03-16T01:30:31.428Z,1.10
2018-03-16T01:32:59.686Z,1.23
2018-03-16T01:35:27.186Z,1.20
2018-03-16T01:37:54.674Z,1.10
2018-03-16T01:40:22.155Z,1.63
2018-03-16T01:42:49.643Z,1.30
2018-03-16T01:45:17.122Z,1.30
2018-03-16T01:47:44.623Z,1.60
2018-03-16T01:50:12.868Z,2.43
2018-03-16T01:52:40.374Z,1.90
2018-03-16T01:55:08.614Z,1.50
2018-03-16T01:57:36.121Z,1.30
2018-03-16T02:00:04.383Z,1.30
2018-03-16T02:02:32.644Z,1.20
2018-03-16T02:05:00.888Z,1.10
2018-03-16T02:07:28.364Z,1.07
2018-03-16T02:09:55.859Z,1.10
2018-03-16T02:12:24.129Z,1.30
2018-03-16T02:14:52.391Z,1.23
2018-03-16T02:17:19.875Z,1.00
2018-03-16T02:19:47.362Z,1.33
2018-03-16T02:22:14.970Z,1.30
2018-03-16T02:24:42.458Z,1.40
2018-03-16T02:27:09.934Z,1.50
2018-03-16T02:29:37.414Z,1.40
2018-03-16T02:32:04.891Z,3.27
2018-03-16T02:34:32.390Z,2.77
2018-03-16T02:36:59.874Z,2.27
2018-03-16T02:39:27.375Z,1.70
2018-03-16T02:41:54.855Z,1.30
2018-03-16T02:44:23.104Z,1.20
2018-03-16T02:46:52.091Z,1.10
2018-03-16T02:49:19.575Z,1.10
2018-03-16T02:51:47.831Z,1.10
2018-03-16T02:54:15.327Z,1.07
2018-03-16T02:56:42.818Z,1.20
2018-03-16T02:59:10.315Z,1.00
2018-03-16T03:01:37.880Z,1.00
2018-03-16T03:04:06.139Z,1.00
2018-03-16T03:06:33.620Z,0.90
2018-03-16T03:09:01.892Z,1.20
2018-03-16T03:11:30.156Z,1.30
2018-03-16T03:13:58.419Z,1.10
2018-03-16T03:16:25.898Z,1.10
2018-03-16T03:18:54.154Z,1.10
2018-03-16T03:21:21.643Z,1.30
2018-03-16T03:23:49.900Z,1.30
2018-03-16T03:26:17.400Z,1.15
2018-03-16T03:28:44.882Z,1.03
2018-03-16T03:31:12.374Z,1.10
2018-03-16T03:33:40.628Z,1.10
2018-03-16T03:36:08.110Z,1.20
2018-03-16T03:38:35.591Z,1.10
2018-03-16T03:41:03.071Z,1.30
2018-03-16T03:43:30.544Z,1.30
2018-03-16T03:45:58.032Z,1.10
2018-03-16T03:48:25.515Z,1.37
2018-03-16T03:50:53.783Z,1.57
2018-03-16T03:53:22.037Z,1.80
2018-03-16T03:55:49.530Z,1.57
2018-03-16T03:58:17.851Z,1.45
2018-03-16T04:00:45.346Z,1.93
2018-03-16T04:03:12.828Z,1.80
2018-03-16T04:05:40.327Z,2.30
2018-03-16T04:08:07.815Z,2.40
2018-03-16T04:10:35.327Z,2.20
2018-03-16T04:13:02.813Z,3.13
2018-03-16T04:15:30.296Z,2.80
2018-03-16T04:17:58.545Z,2.10
2018-03-16T04:20:26.038Z,2.10
2018-03-16T04:22:54.299Z,1.80
2018-03-16T04:25:21.777Z,2.03
2018-03-16T04:27:50.031Z,2.00
2018-03-16T04:30:17.514Z,1.80
2018-03-16T04:32:45.763Z,1.40
2018-03-16T04:35:13.261Z,1.97
2018-03-16T04:37:40.736Z,1.80
2018-03-16T04:40:08.218Z,1.80
2018-03-16T04:42:35.709Z,2.20
2018-03-16T04:45:03.975Z,2.30
2018-03-16T04:47:32.243Z,2.17
2018-03-16T04:50:00.501Z,3.73
2018-03-16T04:52:27.985Z,2.30
2018-03-16T04:54:55.474Z,2.37
2018-03-16T04:57:22.968Z,2.10
2018-03-16T04:59:50.453Z,1.80
2018-03-16T05:02:17.941Z,2.23
2018-03-16T05:04:45.440Z,2.40
2018-03-16T05:07:12.918Z,2.60
2018-03-16T05:09:40.394Z,2.70
2018-03-16T05:12:09.409Z,2.57
2018-03-16T05:14:36.905Z,2.63
2018-03-16T05:17:04.402Z,2.60
2018-03-16T05:19:31.888Z,2.73
2018-03-16T05:21:59.387Z,2.67
2018-03-16T05:24:26.867Z,2.97
2018-03-16T05:26:54.524Z,3.53
2018-03-16T05:29:22.111Z,3.00
2018-03-16T05:31:50.372Z,3.00
2018-03-16T05:34:18.620Z,3.03
2018-03-16T05:36:46.323Z,3.87
2018-03-16T05:39:14.568Z,3.30
2018-03-16T05:41:42.071Z,3.70
2018-03-16T05:44:09.555Z,4.60
2018-03-16T05:46:37.036Z,4.10
2018-03-16T05:49:04.581Z,4.75
2018-03-16T05:51:32.039Z,4.03
2018-03-16T05:53:59.533Z,3.60
2018-03-16T05:56:27.020Z,5.43
2018-03-16T05:58:54.510Z,4.63
2018-03-16T06:01:21.999Z,4.53
2018-03-16T06:03:49.475Z,4.30
2018-03-16T06:06:17.710Z,3.63
2018-03-16T06:08:45.195Z,4.40
2018-03-16T06:11:12.676Z,4.30
2018-03-16T06:13:40.950Z,5.00
2018-03-16T06:16:09.221Z,11.63
2018-03-16T06:18:37.479Z,4.37
2018-03-16T06:21:04.963Z,4.40
2018-03-16T06:23:33.225Z,4.47
2018-03-16T06:26:01.496Z,4.40
2018-03-16T06:28:29.770Z,5.25
2018-03-16T06:30:57.255Z,4.20
2018-03-16T06:33:24.740Z,4.30
2018-03-16T06:35:52.266Z,4.40
2018-03-16T06:38:20.515Z,4.00
2018-03-16T06:40:47.997Z,4.23
2018-03-16T06:43:16.278Z,4.07
2018-03-16T06:45:44.515Z,3.97
2018-03-16T06:48:11.999Z,4.13
2018-03-16T06:50:40.246Z,3.30
2018-03-16T06:53:07.747Z,3.33
2018-03-16T06:55:35.224Z,4.00
2018-03-16T06:58:02.719Z,3.17
2018-03-16T07:00:30.218Z,3.97
2018-03-16T07:02:58.455Z,3.47
2018-03-16T07:05:26.023Z,3.37
2018-03-16T07:07:54.279Z,2.87
2018-03-16T07:10:21.778Z,12.00
2018-03-16T07:12:50.030Z,3.40
2018-03-16T07:15:35.669Z,3.70
2018-03-16T07:18:03.201Z,3.37
2018-03-16T07:20:30.662Z,3.07
2018-03-16T07:22:58.909Z,3.13
2018-03-16T07:25:26.409Z,3.00
2018-03-16T07:27:53.912Z,3.07
2018-03-16T07:30:21.399Z,2.73
2018-03-16T07:32:49.693Z,2.63
2018-03-16T07:35:18.462Z,2.07
2018-03-16T07:37:45.951Z,2.15
2018-03-16T07:40:13.460Z,1.50
2018-03-16T07:42:40.953Z,1.80
2018-03-16T07:45:09.276Z,1.63
2018-03-16T07:47:37.010Z,1.93
2018-03-16T07:50:04.511Z,1.80
2018-03-16T07:52:31.993Z,1.70
2018-03-16T07:55:00.264Z,1.37
2018-03-16T07:57:28.510Z,1.23
2018-03-16T07:59:55.997Z,0.90
2018-03-16T08:02:23.589Z,0.90
2018-03-16T08:04:51.089Z,0.90
2018-03-16T08:07:18.571Z,0.97
2018-03-16T08:09:46.814Z,1.00
2018-03-16T08:12:14.320Z,0.90
2018-03-16T08:14:42.583Z,0.83
2018-03-16T08:17:10.838Z,1.77
2018-03-16T08:19:38.316Z,1.13
2018-03-16T08:22:05.804Z,1.10
2018-03-16T08:24:33.279Z,0.93
2018-03-16T08:27:00.779Z,0.77
2018-03-16T08:29:28.271Z,1.10
2018-03-16T08:31:56.548Z,0.80
2018-03-16T08:34:24.799Z,0.90
2018-03-16T08:36:52.296Z,1.10
2018-03-16T08:39:19.775Z,0.90
2018-03-16T08:41:47.264Z,1.20
2018-03-16T08:44:14.750Z,0.80
2018-03-16T08:46:43.030Z,1.03
2018-03-16T08:49:10.526Z,1.00
2018-03-16T08:51:38.047Z,0.90
2018-03-16T08:54:06.297Z,1.50
2018-03-16T08:56:33.783Z,1.20
2018-03-16T08:59:02.041Z,1.00
2018-03-16T09:01:30.310Z,1.87
2018-03-16T09:03:57.787Z,2.13
2018-03-16T09:06:26.037Z,1.00
2018-03-16T09:08:53.517Z,1.50
2018-03-16T09:11:21.782Z,1.30
2018-03-16T09:13:49.260Z,1.10
2018-03-16T09:16:16.751Z,1.10
2018-03-16T09:18:44.235Z,1.50
2018-03-16T09:21:11.724Z,1.50
2018-03-16T09:23:39.999Z,1.20
2018-03-16T09:26:08.277Z,1.20
2018-03-16T09:28:36.537Z,1.47
2018-03-16T09:31:04.043Z,1.20
2018-03-16T09:33:31.535Z,1.13
2018-03-16T09:35:59.017Z,1.20
2018-03-16T09:38:26.508Z,2.27
2018-03-16T09:40:53.982Z,1.23
2018-03-16T09:43:21.474Z,1.43
2018-03-16T09:45:48.943Z,1.63
2018-03-16T09:48:16.431Z,1.10
2018-03-16T09:50:43.924Z,1.30
2018-03-16T09:53:23.236Z,1.80
2018-03-16T09:55:50.715Z,1.43
2018-03-16T09:58:18.199Z,1.70
2018-03-16T10:00:45.689Z,1.40
2018-03-16T10:03:13.945Z,1.30
2018-03-16T10:05:41.417Z,1.80
2018-03-16T10:08:09.695Z,2.20
2018-03-16T10:10:37.959Z,1.30
2018-03-16T10:13:05.457Z,1.30
2018-03-16T10:15:32.951Z,1.50
2018-03-16T10:18:00.455Z,1.40
2018-03-16T10:20:28.697Z,1.27
2018-03-16T10:22:56.229Z,1.23
2018-03-16T10:25:23.707Z,1.80
2018-03-16T10:27:51.199Z,1.90
2018-03-16T10:30:19.447Z,1.50
2018-03-16T10:32:46.942Z,2.43
2018-03-16T10:35:14.464Z,1.80
2018-03-16T10:37:42.001Z,1.27
2018-03-16T10:40:09.488Z,1.63
2018-03-16T10:42:36.979Z,1.70
2018-03-16T10:45:04.450Z,1.33
2018-03-16T10:47:31.958Z,1.37
2018-03-16T10:49:59.442Z,1.30
2018-03-16T10:52:26.950Z,1.20
2018-03-16T10:54:54.451Z,1.33
2018-03-16T10:57:22.731Z,1.10
2018-03-16T10:59:50.999Z,1.10
2018-03-16T11:02:20.192Z,1.00
2018-03-16T11:04:53.350Z,0.97
2018-03-16T11:07:20.844Z,1.03
2018-03-16T11:09:49.112Z,1.10
2018-03-16T11:12:16.603Z,1.30
2018-03-16T11:14:44.114Z,1.27
2018-03-16T11:17:11.641Z,1.40
2018-03-16T11:19:39.131Z,1.03
2018-03-16T11:22:08.952Z,3.80
2018-03-16T11:24:36.442Z,1.50
2018-03-16T11:27:04.980Z,1.10
2018-03-16T11:29:32.484Z,1.00
2018-03-16T11:31:59.970Z,1.00
2018-03-16T11:34:27.477Z,1.47
2018-03-16T11:36:54.955Z,1.00
2018-03-16T11:39:22.468Z,1.10
2018-03-16T11:41:49.971Z,1.17
2018-03-16T11:44:18.235Z,0.90
2018-03-16T11:46:46.482Z,1.10
2018-03-16T11:49:13.991Z,1.07
2018-03-16T11:51:41.477Z,0.90
2018-03-16T11:54:08.963Z,1.03
2018-03-16T11:56:36.442Z,1.10
2018-03-16T11:59:04.697Z,1.10
2018-03-16T12:01:32.171Z,1.50
2018-03-16T12:04:00.436Z,1.30
2018-03-16T12:06:27.928Z,1.00
2018-03-16T12:08:55.435Z,1.53
2018-03-16T12:11:22.925Z,2.97
2018-03-16T12:13:51.196Z,1.67
2018-03-16T12:16:19.461Z,1.30
2018-03-16T12:18:46.942Z,4.10
2018-03-16T12:21:15.200Z,1.67
2018-03-16T12:23:42.703Z,1.97
2018-03-16T12:26:10.216Z,1.70
2018-03-16T12:28:49.694Z,1.50
2018-03-16T12:31:05.343Z,2.00
2018-03-16T12:33:33.607Z,2.90
2018-03-16T12:36:01.125Z,1.75
2018-03-16T12:38:28.613Z,1.80
2018-03-16T12:40:56.105Z,1.63
2018-03-16T12:43:24.367Z,2.63
2018-03-16T12:45:51.864Z,1.70
2018-03-16T12:48:19.379Z,1.50
2018-03-16T12:50:46.887Z,1.90
2018-03-16T12:53:14.365Z,1.53
2018-03-16T12:55:41.850Z,1.90
2018-03-16T12:58:09.342Z,1.30
2018-03-16T13:00:36.882Z,2.20
2018-03-16T13:03:05.156Z,2.50
2018-03-16T13:05:33.430Z,1.97
2018-03-16T13:08:01.719Z,2.08
2018-03-16T13:10:30.087Z,1.70
2018-03-16T13:12:57.955Z,2.17
2018-03-16T13:15:26.210Z,1.20
2018-03-16T13:17:53.695Z,1.52
2018-03-16T13:20:22.019Z,1.47
2018-03-16T13:22:49.534Z,1.10
2018-03-16T13:25:17.813Z,1.40
2018-03-16T13:27:46.071Z,1.53
2018-03-16T13:30:13.566Z,1.47
2018-03-16T13:32:41.060Z,1.80
2018-03-16T13:35:08.688Z,1.37
2018-03-16T13:37:36.215Z,2.03
2018-03-16T13:40:04.481Z,1.70
2018-03-16T13:42:32.755Z,2.60
2018-03-16T13:45:00.250Z,1.60
2018-03-16T13:47:27.745Z,1.70
2018-03-16T13:49:55.233Z,2.17
2018-03-16T13:52:23.498Z,2.37
2018-03-16T13:54:51.003Z,1.73
2018-03-16T13:57:18.536Z,2.10
2018-03-16T13:59:46.779Z,2.03
2018-03-16T14:02:14.384Z,1.30
2018-03-16T14:04:41.768Z,1.30
2018-03-16T14:07:09.283Z,1.93
2018-03-16T14:09:37.544Z,1.30
2018-03-16T14:12:05.053Z,1.17
2018-03-16T14:14:32.542Z,1.70
2018-03-16T14:17:00.042Z,1.50
2018-03-16T14:19:28.283Z,1.77
2018-03-16T14:21:55.774Z,1.30
2018-03-16T14:24:24.018Z,1.37
2018-03-16T14:26:53.030Z,1.50
2018-03-16T14:29:20.520Z,1.20
2018-03-16T14:31:48.208Z,1.30
2018-03-16T14:34:15.726Z,1.63
2018-03-16T14:36:43.986Z,1.60
2018-03-16T14:39:11.475Z,1.80
2018-03-16T14:41:38.968Z,1.33
2018-03-16T14:44:06.459Z,1.53
2018-03-16T14:46:33.956Z,1.70
2018-03-16T14:49:01.451Z,1.20
2018-03-16T14:51:28.944Z,1.20
2018-03-16T14:53:57.227Z,1.73
2018-03-16T14:56:24.726Z,1.40
2018-03-16T14:58:52.218Z,1.60
2018-03-16T15:01:19.713Z,2.00
2018-03-16T15:03:47.236Z,2.07
2018-03-16T15:06:14.724Z,2.03
2018-03-16T15:08:42.796Z,1.33
2018-03-16T15:11:10.270Z,1.57
2018-03-16T15:13:37.758Z,1.47
2018-03-16T15:16:05.248Z,1.70
2018-03-16T15:18:33.526Z,1.40
2018-03-16T15:21:01.797Z,1.77
2018-03-16T15:23:29.296Z,1.50
2018-03-16T15:25:56.738Z,1.70
2018-03-16T15:28:24.197Z,1.83
2018-03-16T15:30:51.644Z,1.60
2018-03-16T15:33:19.110Z,1.63
2018-03-16T15:35:46.573Z,1.70
2018-03-16T15:38:14.026Z,1.50
2018-03-16T15:40:41.472Z,1.57
2018-03-16T15:43:08.932Z,1.50
2018-03-16T15:45:36.390Z,1.57
2018-03-16T15:48:03.846Z,1.43
2018-03-16T15:50:32.065Z,1.47
2018-03-16T15:52:59.512Z,2.00
2018-03-16T15:55:26.969Z,1.37
2018-03-16T15:57:54.420Z,1.50
2018-03-16T16:00:21.876Z,1.80
2018-03-16T16:02:49.331Z,1.40
2018-03-16T16:05:16.785Z,1.40
2018-03-16T16:07:44.234Z,1.60
2018-03-16T16:10:11.685Z,1.37
2018-03-16T16:12:39.148Z,1.30
2018-03-16T16:15:30.545Z,1.50
2018-03-16T16:17:58.744Z,1.40
2018-03-16T16:20:26.205Z,1.70
2018-03-16T16:22:53.641Z,1.67
2018-03-16T16:25:21.092Z,1.20
2018-03-16T16:27:49.321Z,1.37
2018-03-16T16:30:16.787Z,1.50
2018-03-16T16:35:37.325Z,2.40
2018-03-16T16:40:58.362Z,2.00
2018-03-16T16:43:26.577Z,2.10
2018-03-16T16:45:54.043Z,1.60
2018-03-16T16:48:21.494Z,2.00
2018-03-16T16:50:49.017Z,1.30
2018-03-16T16:53:17.240Z,1.63
2018-03-16T16:55:44.689Z,1.60
2018-03-16T16:58:12.153Z,1.63
2018-03-16T17:00:39.631Z,1.37
2018-03-16T17:03:07.082Z,1.50
2018-03-16T17:05:34.552Z,1.70
2018-03-16T17:08:02.006Z,1.30
2018-03-16T17:10:29.470Z,2.30
2018-03-16T17:12:56.999Z,1.53
2018-03-16T17:15:24.460Z,1.80
2018-03-16T17:17:51.916Z,1.90
2018-03-16T17:20:19.806Z,1.50
2018-03-16T17:22:47.268Z,2.00
2018-03-16T17:25:14.705Z,1.70
2018-03-16T17:27:42.198Z,1.87
2018-03-16T17:30:09.634Z,1.50
2018-03-16T17:32:37.079Z,2.80
2018-03-16T17:35:04.591Z,2.83
2018-03-16T17:37:32.062Z,2.30
2018-03-16T17:39:59.511Z,2.30
2018-03-16T17:42:26.977Z,2.80
2018-03-16T17:44:54.505Z,2.30
2018-03-16T17:47:22.726Z,2.13
2018-03-16T17:49:50.242Z,2.80
2018-03-16T17:52:17.669Z,2.80
2018-03-16T17:54:45.124Z,2.17
2018-03-16T17:57:12.592Z,2.83
2018-03-16T17:59:40.806Z,2.10
2018-03-16T18:02:08.269Z,4.70
2018-03-16T18:04:35.705Z,3.77
2018-03-16T18:07:03.918Z,2.50
2018-03-16T18:09:31.362Z,2.50
2018-03-16T18:11:58.824Z,1.80
2018-03-16T18:14:26.266Z,2.17
2018-03-16T18:16:53.731Z,1.80
2018-03-16T18:19:21.201Z,2.13
2018-03-16T18:21:48.668Z,2.10
2018-03-16T18:24:16.117Z,2.60
2018-03-16T18:26:43.567Z,2.83
2018-03-16T18:29:11.037Z,6.70
2018-03-16T18:31:38.487Z,7.40
2018-03-16T18:34:05.953Z,7.90
2018-03-16T18:36:33.389Z,7.50
2018-03-16T18:39:00.851Z,7.00
2018-03-16T18:41:28.305Z,7.97
2018-03-16T18:43:55.774Z,9.93
2018-03-16T18:46:23.225Z,8.60
2018-03-16T18:48:50.690Z,5.50
2018-03-16T18:51:18.133Z,5.83
2018-03-16T18:53:45.613Z,4.73
2018-03-16T18:56:13.060Z,4.40
2018-03-16T18:58:40.530Z,5.83
2018-03-16T19:01:08.004Z,9.63
2018-03-16T19:03:35.466Z,11.13
2018-03-16T19:06:02.937Z,12.63
2018-03-16T19:08:31.177Z,11.53
2018-03-16T19:10:58.637Z,10.10
2018-03-16T19:13:26.094Z,8.90
2018-03-16T19:15:53.550Z,8.00
2018-03-16T19:18:21.015Z,8.20
2018-03-16T19:20:48.465Z,7.60
2018-03-16T19:23:15.929Z,9.63
2018-03-16T19:25:43.384Z,10.60
2018-03-16T19:28:10.834Z,9.60
2018-03-16T19:30:38.345Z,7.62
2018-03-16T19:33:05.785Z,12.07
2018-03-16T19:35:34.026Z,12.10
2018-03-16T19:38:01.492Z,9.00
2018-03-16T19:40:29.024Z,5.30
2018-03-16T19:42:56.473Z,5.40
2018-03-16T19:45:23.957Z,4.53
2018-03-16T19:47:51.409Z,4.60
2018-03-16T19:50:18.873Z,8.67
2018-03-16T19:52:46.324Z,8.97
2018-03-16T19:55:13.782Z,5.33
2018-03-16T19:57:41.235Z,3.70
2018-03-16T20:00:08.711Z,3.17
2018-03-16T20:02:36.975Z,2.93
2018-03-16T20:05:05.390Z,2.83
2018-03-16T20:07:33.605Z,2.77
2018-03-16T20:10:01.073Z,4.50
2018-03-16T20:12:28.536Z,2.63
2018-03-16T20:14:56.041Z,3.27
2018-03-16T20:17:24.246Z,4.93
2018-03-16T20:19:51.731Z,6.17
2018-03-16T20:22:19.188Z,9.50
2018-03-16T20:24:46.658Z,7.73
2018-03-16T20:27:14.121Z,4.40
2018-03-16T20:29:41.582Z,6.70
2018-03-16T20:32:09.034Z,6.60
2018-03-16T20:34:37.271Z,7.33
2018-03-16T20:37:04.741Z,8.63
2018-03-16T20:39:32.207Z,7.70
2018-03-16T20:41:59.679Z,7.55
2018-03-16T20:44:27.138Z,7.80
2018-03-16T20:46:54.609Z,7.20
2018-03-16T20:49:22.073Z,6.93
2018-03-16T20:51:50.312Z,8.23
2018-03-16T20:54:17.775Z,7.00
2018-03-16T20:56:45.256Z,6.73
2018-03-16T20:59:12.733Z,8.27
2018-03-16T21:01:40.978Z,6.60
2018-03-16T21:04:08.456Z,10.00
2018-03-16T21:06:35.997Z,14.80
2018-03-16T21:09:16.317Z,18.05
2018-03-16T21:11:43.834Z,10.67
2018-03-16T21:14:11.389Z,8.93
2018-03-16T21:16:40.380Z,13.40
2018-03-16T21:19:08.599Z,9.43
2018-03-16T21:21:36.069Z,7.03
2018-03-16T21:24:03.545Z,8.83
2018-03-16T21:26:31.016Z,11.10
2018-03-16T21:28:58.496Z,10.60
2018-03-16T21:31:26.750Z,10.43
2018-03-16T21:33:54.211Z,10.30
2018-03-16T21:36:23.239Z,9.17
2018-03-16T21:38:50.727Z,8.27
2018-03-16T21:41:18.185Z,8.47
2018-03-16T21:43:45.656Z,8.30
2018-03-16T21:46:13.116Z,8.27
2018-03-16T21:48:40.592Z,9.00
2018-03-16T21:51:08.070Z,9.57
2018-03-16T21:53:36.322Z,10.03
2018-03-16T21:56:03.776Z,19.20
2018-03-16T21:58:31.262Z,16.03
2018-03-16T22:00:59.513Z,15.30
2018-03-16T22:03:26.985Z,14.13
2018-03-16T22:05:54.462Z,10.80
2018-03-16T22:08:22.705Z,9.83
2018-03-16T22:10:50.167Z,10.23
2018-03-16T22:13:17.644Z,15.57
2018-03-16T22:15:45.848Z,15.33
2018-03-16T22:18:13.310Z,14.70
2018-03-16T22:20:40.764Z,14.37
2018-03-16T22:23:08.773Z,15.47
2018-03-16T22:25:36.238Z,13.43
2018-03-16T22:28:03.698Z,10.50
2018-03-16T22:30:31.144Z,9.60
2018-03-16T22:32:58.604Z,7.50
2018-03-16T22:35:26.054Z,8.63
2018-03-16T22:37:53.522Z,13.05
2018-03-16T22:40:22.474Z,12.90
2018-03-16T22:42:49.938Z,13.17
2018-03-16T22:45:17.393Z,12.03
2018-03-16T22:47:44.859Z,11.30
2018-03-16T22:50:12.303Z,9.93
2018-03-16T22:52:39.764Z,10.87
2018-03-16T22:55:07.212Z,16.63
2018-03-16T22:57:34.672Z,14.47
2018-03-16T23:00:02.169Z,9.70
2018-03-16T23:02:29.630Z,8.57
2018-03-16T23:04:57.097Z,8.70
2018-03-16T23:07:24.538Z,8.40
2018-03-16T23:09:52.019Z,7.60
2018-03-16T23:12:20.255Z,8.97
2018-03-16T23:14:47.714Z,9.17
2018-03-16T23:17:15.174Z,7.67
2018-03-16T23:19:42.626Z,8.00
2018-03-16T23:22:10.849Z,10.43
2018-03-16T23:24:39.073Z,8.77
2018-03-16T23:27:06.535Z,9.60
2018-03-16T23:29:34.001Z,9.20
2018-03-16T23:32:01.459Z,8.65
2018-03-16T23:34:28.927Z,10.73
2018-03-16T23:36:56.368Z,6.20
2018-03-16T23:39:23.807Z,5.93
2018-03-16T23:41:51.264Z,6.47
2018-03-16T23:44:18.734Z,7.80
2018-03-16T23:46:46.181Z,7.03
2018-03-16T23:49:13.645Z,6.87
2018-03-16T23:51:41.091Z,6.60
2018-03-16T23:54:08.561Z,6.00
2018-03-16T23:56:36.009Z,6.60
2018-03-16T23:59:03.453Z,6.77
